createdAt,value
2022-11-17T00:00:43.008Z,73.59
2022-11-17T00:03:17.706Z,73.86
2022-11-17T00:05:45.145Z,73.96
2022-11-17T00:08:12.450Z,73.83
2022-11-17T00:10:39.553Z,73.45
2022-11-17T00:13:25.026Z,73.38
2022-11-17T00:15:52.087Z,73.43
2022-11-17T00:18:37.576Z,72.90
2022-11-17T00:21:21.653Z,72.42
2022-11-17T00:23:50.383Z,71.85
2022-11-17T00:26:21.195Z,70.82
2022-11-17T00:28:55.810Z,70.80
2022-11-17T00:31:44.051Z,70.69
2022-11-17T00:34:18.932Z,70.30
2022-11-17T00:36:52.300Z,70.22
2022-11-17T00:39:21.961Z,69.07
2022-11-17T00:41:49.188Z,69.82
2022-11-17T00:44:16.829Z,69.92
2022-11-17T00:46:44.115Z,69.74
2022-11-17T00:49:12.361Z,70.27
2022-11-17T00:51:42.373Z,69.53
2022-11-17T00:54:12.962Z,69.38
2022-11-17T00:56:40.419Z,70.24
2022-11-17T00:59:07.469Z,69.58
2022-11-17T01:01:34.904Z,69.44
2022-11-17T01:04:05.699Z,69.05
2022-11-17T01:06:53.022Z,69.09
2022-11-17T01:09:23.571Z,68.87
2022-11-17T01:11:53.017Z,69.06
2022-11-17T01:14:29.180Z,69.10
2022-11-17T01:16:56.550Z,68.95
2022-11-17T01:19:24.652Z,69.60
2022-11-17T01:21:51.730Z,69.71
2022-11-17T01:24:19.053Z,69.74
2022-11-17T01:26:46.886Z,69.70
2022-11-17T01:29:18.949Z,69.33
2022-11-17T01:31:51.390Z,68.79
2022-11-17T01:34:19.468Z,69.11
2022-11-17T01:37:05.487Z,68.90
2022-11-17T01:39:32.733Z,69.10
2022-11-17T01:42:11.858Z,69.63
2022-11-17T01:44:55.536Z,69.40
2022-11-17T01:47:25.424Z,70.38
2022-11-17T01:50:01.041Z,69.55
2022-11-17T01:52:31.721Z,70.35
2022-11-17T01:55:02.997Z,70.06
2022-11-17T01:57:59.996Z,70.64
2022-11-17T02:00:28.274Z,70.03
2022-11-17T02:02:56.022Z,69.89
2022-11-17T02:05:30.857Z,69.33
2022-11-17T02:08:02.068Z,69.97
2022-11-17T02:10:31.632Z,69.20
2022-11-17T02:13:01.534Z,69.22
2022-11-17T02:15:31.929Z,68.94
2022-11-17T02:18:00.440Z,69.95
2022-11-17T02:21:02.557Z,69.05
2022-11-17T02:23:57.213Z,68.63
2022-11-17T02:26:58.823Z,68.49
2022-11-17T02:29:48.278Z,69.08
2022-11-17T02:32:34.183Z,68.65
2022-11-17T02:35:13.120Z,68.47
2022-11-17T02:38:01.435Z,67.56
2022-11-17T02:41:06.851Z,67.67
2022-11-17T02:44:20.466Z,68.54
2022-11-17T02:47:01.810Z,68.57
2022-11-17T02:49:45.432Z,68.03
2022-11-17T02:52:14.497Z,68.62
2022-11-17T02:54:43.631Z,68.02
2022-11-17T02:57:40.204Z,68.24
2022-11-17T03:00:18.942Z,68.98
2022-11-17T03:03:07.202Z,68.94
2022-11-17T03:05:54.397Z,69.73
2022-11-17T03:08:47.835Z,68.34
2022-11-17T03:11:15.111Z,68.41
2022-11-17T03:13:57.509Z,68.54
2022-11-17T03:17:09.601Z,69.42
2022-11-17T03:20:02.296Z,70.21
2022-11-17T03:22:57.309Z,70.26
2022-11-17T03:25:32.262Z,70.35
2022-11-17T03:28:06.768Z,69.37
2022-11-17T03:30:40.264Z,70.36
2022-11-17T03:33:17.617Z,70.38
2022-11-17T03:36:07.129Z,69.58
2022-11-17T03:38:44.977Z,70.00
2022-11-17T03:41:15.569Z,69.33
2022-11-17T03:43:49.622Z,69.15
2022-11-17T03:46:22.131Z,68.97
2022-11-17T03:49:20.830Z,69.80
2022-11-17T03:51:47.861Z,69.33
2022-11-17T03:54:15.841Z,69.99
2022-11-17T03:57:17.061Z,68.92
2022-11-17T04:00:10.371Z,69.32
2022-11-17T04:02:40.574Z,69.36
2022-11-17T04:05:08.690Z,69.42
2022-11-17T04:07:42.369Z,69.83
2022-11-17T04:10:13.630Z,70.09
2022-11-17T04:13:01.625Z,69.85
2022-11-17T04:15:47.921Z,70.24
2022-11-17T04:18:15.531Z,70.64
2022-11-17T04:20:43.312Z,70.75
2022-11-17T04:23:14.373Z,70.77
2022-11-17T04:26:04.840Z,71.07
2022-11-17T04:28:37.222Z,71.02
2022-11-17T04:31:29.234Z,70.29
2022-11-17T04:33:58.542Z,70.59
2022-11-17T04:36:29.453Z,71.42
2022-11-17T04:38:59.457Z,71.19
2022-11-17T04:41:47.435Z,72.26
2022-11-17T04:44:17.526Z,71.18
2022-11-17T04:46:48.719Z,71.24
2022-11-17T04:49:17.876Z,71.80
2022-11-17T04:51:45.513Z,71.86
2022-11-17T04:54:16.766Z,72.19
2022-11-17T04:56:44.410Z,72.03
2022-11-17T04:59:11.699Z,71.95
2022-11-17T05:01:39.204Z,71.57
2022-11-17T05:04:12.669Z,71.96
2022-11-17T05:06:45.076Z,72.52
2022-11-17T05:09:15.838Z,72.27
2022-11-17T05:12:02.222Z,73.29
2022-11-17T05:14:29.744Z,72.10
2022-11-17T05:17:10.532Z,72.57
2022-11-17T05:19:47.217Z,72.38
2022-11-17T05:22:41.759Z,73.05
2022-11-17T05:25:10.008Z,72.69
2022-11-17T05:27:37.343Z,72.22
2022-11-17T05:30:07.572Z,72.33
2022-11-17T05:32:34.781Z,73.22
2022-11-17T05:35:04.675Z,72.79
2022-11-17T05:37:31.657Z,72.82
2022-11-17T05:39:58.675Z,73.02
2022-11-17T05:42:28.145Z,72.99
2022-11-17T05:44:55.357Z,72.65
2022-11-17T05:47:22.404Z,72.81
2022-11-17T05:49:49.387Z,72.41
2022-11-17T05:52:16.438Z,71.81
2022-11-17T05:54:43.475Z,72.95
2022-11-17T05:57:16.936Z,73.16
2022-11-17T05:59:56.282Z,72.17
2022-11-17T06:02:30.647Z,72.31
2022-11-17T06:04:57.613Z,72.82
2022-11-17T06:07:24.839Z,72.69
2022-11-17T06:09:53.391Z,73.04
2022-11-17T06:12:20.801Z,72.62
2022-11-17T06:14:47.917Z,72.63
2022-11-17T06:17:28.213Z,72.66
2022-11-17T06:20:08.757Z,72.74
2022-11-17T06:22:36.537Z,72.33
2022-11-17T06:25:05.910Z,72.89
2022-11-17T06:27:34.016Z,72.65
2022-11-17T06:30:06.730Z,73.12
2022-11-17T06:32:37.276Z,73.54
2022-11-17T06:35:10.690Z,73.38
2022-11-17T06:37:37.710Z,73.01
2022-11-17T06:40:05.753Z,72.35
2022-11-17T06:42:51.037Z,73.44
2022-11-17T06:45:18.313Z,73.31
2022-11-17T06:47:54.305Z,73.25
2022-11-17T06:50:23.392Z,73.46
2022-11-17T06:52:56.031Z,73.55
2022-11-17T06:55:23.116Z,73.20
2022-11-17T06:57:53.363Z,73.69
2022-11-17T07:00:21.337Z,72.39
2022-11-17T07:02:48.435Z,70.27
2022-11-17T07:05:18.072Z,67.28
2022-11-17T07:07:45.194Z,65.39
2022-11-17T07:10:14.574Z,64.12
2022-11-17T07:12:41.644Z,64.32
2022-11-17T07:15:09.355Z,62.62
2022-11-17T07:17:36.360Z,62.44
2022-11-17T07:20:04.242Z,60.46
2022-11-17T07:22:33.777Z,61.12
2022-11-17T07:25:00.739Z,61.33
2022-11-17T07:27:27.910Z,60.65
2022-11-17T07:29:54.965Z,59.70
2022-11-17T07:32:22.135Z,58.54
2022-11-17T07:34:49.530Z,58.48
2022-11-17T07:37:17.208Z,57.39
2022-11-17T07:39:44.351Z,58.51
2022-11-17T07:42:11.378Z,59.11
2022-11-17T07:44:38.445Z,58.45
2022-11-17T07:47:05.699Z,58.54
2022-11-17T07:49:32.836Z,60.50
2022-11-17T07:52:02.386Z,63.30
2022-11-17T07:54:29.535Z,65.93
2022-11-17T07:56:56.620Z,66.43
2022-11-17T07:59:23.774Z,66.83
2022-11-17T08:01:50.822Z,66.89
2022-11-17T08:04:20.698Z,67.43
2022-11-17T08:06:47.772Z,67.00
2022-11-17T08:09:16.286Z,68.42
2022-11-17T08:11:45.780Z,69.38
2022-11-17T08:14:12.880Z,69.50
2022-11-17T08:16:39.948Z,68.98
2022-11-17T08:19:12.126Z,69.63
2022-11-17T08:21:40.124Z,71.33
2022-11-17T08:24:09.726Z,70.99
2022-11-17T08:26:36.989Z,70.82
2022-11-17T08:29:04.471Z,70.39
2022-11-17T08:31:31.563Z,69.78
2022-11-17T08:33:58.537Z,73.28
2022-11-17T08:36:25.547Z,70.57
2022-11-17T08:38:52.583Z,71.27
2022-11-17T08:41:19.993Z,70.27
2022-11-17T08:43:47.139Z,69.88
2022-11-17T08:46:17.135Z,69.79
2022-11-17T08:48:52.254Z,69.59
2022-11-17T08:51:22.759Z,68.95
2022-11-17T08:53:52.228Z,69.51
2022-11-17T08:56:19.402Z,70.23
2022-11-17T08:58:46.570Z,70.05
2022-11-17T09:01:16.071Z,70.98
2022-11-17T09:03:45.983Z,70.34
2022-11-17T09:06:15.892Z,69.87
2022-11-17T09:08:46.231Z,69.45
2022-11-17T09:11:14.618Z,69.88
2022-11-17T09:13:42.284Z,69.37
2022-11-17T09:16:11.761Z,69.28
2022-11-17T09:18:39.808Z,69.19
2022-11-17T09:21:15.303Z,69.17
2022-11-17T09:23:42.958Z,68.97
2022-11-17T09:26:13.254Z,69.17
2022-11-17T09:28:43.226Z,69.11
2022-11-17T09:31:19.843Z,68.37
2022-11-17T09:33:47.141Z,68.42
2022-11-17T09:36:16.267Z,68.74
2022-11-17T09:38:47.179Z,68.34
2022-11-17T09:41:43.554Z,68.82
2022-11-17T09:44:32.067Z,69.40
2022-11-17T09:47:38.553Z,67.38
2022-11-17T09:50:27.231Z,66.46
2022-11-17T09:53:23.897Z,67.10
2022-11-17T09:56:13.560Z,68.56
2022-11-17T09:58:55.332Z,67.52
2022-11-17T10:01:23.278Z,67.78
2022-11-17T10:03:51.377Z,66.80
2022-11-17T10:06:25.389Z,66.25
2022-11-17T10:09:10.293Z,66.78
2022-11-17T10:11:41.485Z,66.14
2022-11-17T10:14:08.370Z,66.79
2022-11-17T10:16:51.012Z,67.64
2022-11-17T10:19:25.505Z,65.87
2022-11-17T10:22:20.697Z,65.98
2022-11-17T10:24:55.039Z,65.34
2022-11-17T10:27:34.281Z,65.21
2022-11-17T10:30:24.486Z,66.05
2022-11-17T10:33:00.949Z,67.51
2022-11-17T10:35:35.804Z,67.87
2022-11-17T10:38:20.940Z,66.44
2022-11-17T10:40:52.966Z,65.75
2022-11-17T10:43:30.931Z,65.45
2022-11-17T10:46:12.577Z,65.47
2022-11-17T10:48:53.420Z,65.43
2022-11-17T10:51:26.972Z,65.92
2022-11-17T10:54:21.015Z,64.66
2022-11-17T10:56:57.559Z,65.29
2022-11-17T11:00:05.301Z,65.38
2022-11-17T11:02:40.254Z,66.14
2022-11-17T11:05:08.898Z,64.91
2022-11-17T11:07:36.979Z,63.75
2022-11-17T11:10:31.895Z,64.45
2022-11-17T11:13:29.571Z,64.13
2022-11-17T11:15:56.661Z,64.61
2022-11-17T11:18:23.864Z,63.83
2022-11-17T11:21:02.702Z,64.17
2022-11-17T11:23:54.636Z,64.08
2022-11-17T11:27:01.680Z,64.00
2022-11-17T11:29:57.848Z,63.55
2022-11-17T11:33:07.462Z,64.12
2022-11-17T11:36:15.294Z,64.29
2022-11-17T11:38:51.395Z,64.16
2022-11-17T11:42:06.402Z,63.44
2022-11-17T11:44:53.004Z,63.83
2022-11-17T11:47:38.046Z,63.31
2022-11-17T11:50:27.267Z,63.95
2022-11-17T11:53:23.634Z,64.05
2022-11-17T11:56:06.084Z,63.25
2022-11-17T11:58:33.045Z,63.53
2022-11-17T12:01:01.104Z,63.34
2022-11-17T12:03:46.466Z,62.58
2022-11-17T12:06:35.847Z,62.40
2022-11-17T12:09:19.223Z,62.98
2022-11-17T12:12:02.676Z,62.44
2022-11-17T12:14:36.432Z,62.71
2022-11-17T12:17:26.275Z,62.42
2022-11-17T12:20:07.494Z,62.42
2022-11-17T12:22:37.429Z,63.46
2022-11-17T12:25:29.131Z,63.62
2022-11-17T12:27:56.252Z,63.61
2022-11-17T12:30:36.745Z,64.45
2022-11-17T12:33:08.627Z,63.67
2022-11-17T12:35:37.249Z,63.53
2022-11-17T12:38:20.068Z,63.30
2022-11-17T12:40:51.644Z,64.32
2022-11-17T12:43:29.918Z,64.50
2022-11-17T12:46:03.619Z,63.71
2022-11-17T12:48:34.808Z,63.83
2022-11-17T12:51:29.403Z,64.22
2022-11-17T12:54:21.074Z,64.28
2022-11-17T12:56:51.912Z,64.18
2022-11-17T13:00:10.776Z,64.90
2022-11-17T13:03:22.273Z,65.78
2022-11-17T13:09:12.380Z,65.55
2022-11-17T13:11:41.858Z,65.44
2022-11-17T13:14:16.726Z,64.63
2022-11-17T13:16:50.851Z,64.94
2022-11-17T13:19:41.454Z,65.45
2022-11-17T13:22:11.455Z,65.38
2022-11-17T13:24:47.412Z,65.64
2022-11-17T13:27:32.852Z,65.28
2022-11-17T13:30:21.716Z,65.36
2022-11-17T13:32:49.590Z,65.28
2022-11-17T13:35:29.861Z,64.66
2022-11-17T13:38:12.208Z,65.34
2022-11-17T13:40:40.878Z,65.18
2022-11-17T13:43:17.313Z,65.32
2022-11-17T13:45:45.822Z,65.14
2022-11-17T13:48:35.588Z,64.46
2022-11-17T13:51:20.762Z,64.53
2022-11-17T13:53:59.197Z,65.37
2022-11-17T13:56:36.715Z,65.50
2022-11-17T13:59:26.175Z,66.27
2022-11-17T14:02:20.862Z,66.05
2022-11-17T14:05:15.088Z,66.21
2022-11-17T14:07:44.441Z,67.36
2022-11-17T14:10:15.222Z,66.27
2022-11-17T14:12:45.195Z,65.35
2022-11-17T14:15:27.506Z,65.33
2022-11-17T14:18:00.163Z,65.51
2022-11-17T14:20:35.895Z,66.15
2022-11-17T14:23:02.934Z,65.74
2022-11-17T14:25:39.401Z,66.35
2022-11-17T14:28:19.250Z,65.79
2022-11-17T14:30:52.312Z,66.63
2022-11-17T14:33:20.699Z,66.09
2022-11-17T14:35:55.026Z,65.91
2022-11-17T14:38:22.455Z,67.01
2022-11-17T14:40:52.275Z,65.99
2022-11-17T14:43:21.116Z,66.83
2022-11-17T14:45:49.781Z,66.85
2022-11-17T14:48:20.337Z,66.65
2022-11-17T14:50:48.391Z,67.23
2022-11-17T14:53:17.549Z,66.97
2022-11-17T14:55:47.507Z,67.89
2022-11-17T14:58:15.159Z,66.83
2022-11-17T15:00:44.657Z,66.65
2022-11-17T15:03:11.805Z,67.81
2022-11-17T15:05:46.195Z,68.49
2022-11-17T15:08:18.179Z,68.07
2022-11-17T15:10:45.957Z,67.59
2022-11-17T15:13:13.067Z,67.84
2022-11-17T15:15:40.175Z,67.24
2022-11-17T15:18:12.843Z,67.87
2022-11-17T15:20:39.902Z,67.27
2022-11-17T15:23:06.916Z,67.56
2022-11-17T15:25:33.945Z,67.66
2022-11-17T15:28:01.024Z,68.10
2022-11-17T15:30:28.278Z,67.63
2022-11-17T15:32:55.347Z,67.04
2022-11-17T15:35:22.332Z,68.69
2022-11-17T15:37:49.395Z,68.14
2022-11-17T15:40:19.572Z,68.57
2022-11-17T15:42:46.785Z,67.90
2022-11-17T15:45:13.962Z,68.68
2022-11-17T15:47:40.981Z,67.89
2022-11-17T15:50:08.813Z,67.19
2022-11-17T15:53:02.329Z,68.08
2022-11-17T15:55:22.842Z,67.52
2022-11-17T15:57:54.669Z,68.39
2022-11-17T16:00:21.946Z,68.70
2022-11-17T16:02:55.804Z,69.44
2022-11-17T16:05:25.585Z,68.76
2022-11-17T16:07:52.688Z,68.41
2022-11-17T16:10:19.722Z,69.02
2022-11-17T16:12:49.534Z,68.60
2022-11-17T16:15:19.601Z,68.85
2022-11-17T16:17:46.603Z,68.28
2022-11-17T16:20:14.206Z,68.41
2022-11-17T16:22:41.218Z,67.73
2022-11-17T16:25:10.678Z,68.42
2022-11-17T16:27:37.743Z,68.67
2022-11-17T16:30:05.241Z,68.80
2022-11-17T16:32:32.386Z,68.81
2022-11-17T16:35:01.482Z,69.34
2022-11-17T16:37:28.542Z,70.37
2022-11-17T16:39:56.408Z,70.51
2022-11-17T16:42:23.417Z,70.82
2022-11-17T16:44:50.603Z,70.98
2022-11-17T16:47:17.606Z,70.76
2022-11-17T16:49:47.851Z,71.34
2022-11-17T16:52:17.642Z,71.44
2022-11-17T16:54:44.638Z,71.93
2022-11-17T16:57:11.658Z,71.95
2022-11-17T16:59:41.315Z,71.28
2022-11-17T17:02:15.503Z,71.65
2022-11-17T17:04:42.478Z,71.46
2022-11-17T17:07:09.555Z,72.04
2022-11-17T17:09:37.868Z,71.08
2022-11-17T17:12:05.675Z,70.42
2022-11-17T17:14:32.684Z,71.44
2022-11-17T17:17:02.298Z,71.78
2022-11-17T17:19:29.579Z,71.20
2022-11-17T17:21:56.784Z,70.49
2022-11-17T17:24:23.805Z,70.42
2022-11-17T17:26:50.810Z,70.42
2022-11-17T17:29:18.283Z,71.59
2022-11-17T17:31:45.564Z,72.60
2022-11-17T17:34:13.378Z,71.23
2022-11-17T17:36:45.684Z,71.58
2022-11-17T17:39:15.680Z,71.75
2022-11-17T17:41:44.531Z,72.06
2022-11-17T17:44:18.713Z,70.31
2022-11-17T17:46:46.860Z,70.78
2022-11-17T17:49:14.644Z,71.17
2022-11-17T17:51:44.443Z,69.90
2022-11-17T17:54:21.460Z,70.02
2022-11-17T17:56:48.596Z,69.47
2022-11-17T17:59:16.821Z,68.60
2022-11-17T18:01:46.281Z,69.98
2022-11-17T18:04:16.086Z,69.62
2022-11-17T18:06:48.794Z,70.28
2022-11-17T18:09:20.626Z,69.88
2022-11-17T18:11:50.821Z,69.87
2022-11-17T18:14:23.941Z,68.92
2022-11-17T18:16:54.336Z,68.54
2022-11-17T18:19:22.288Z,68.58
2022-11-17T18:21:49.504Z,68.21
2022-11-17T18:24:16.570Z,67.66
2022-11-17T18:26:43.850Z,68.45
2022-11-17T18:29:18.541Z,69.50
2022-11-17T18:31:47.539Z,69.27
2022-11-17T18:34:22.991Z,68.69
2022-11-17T18:36:58.073Z,69.02
2022-11-17T18:39:25.320Z,68.74
2022-11-17T18:41:52.376Z,68.84
2022-11-17T18:44:19.803Z,68.60
2022-11-17T18:46:49.435Z,68.60
2022-11-17T18:49:16.929Z,69.36
2022-11-17T18:51:46.340Z,68.38
2022-11-17T18:54:16.026Z,70.10
2022-11-17T18:56:46.905Z,69.31
2022-11-17T18:59:14.347Z,68.89
2022-11-17T19:01:43.326Z,69.95
2022-11-17T19:04:13.997Z,70.59
2022-11-17T19:06:41.335Z,71.61
2022-11-17T19:09:08.597Z,70.28
2022-11-17T19:11:35.849Z,71.36
2022-11-17T19:14:05.266Z,71.44
2022-11-17T19:16:33.432Z,71.47
2022-11-17T19:19:00.710Z,71.79
2022-11-17T19:21:36.006Z,71.69
2022-11-17T19:24:07.818Z,71.30
2022-11-17T19:26:36.255Z,72.25
2022-11-17T19:29:16.140Z,71.95
2022-11-17T19:31:47.506Z,71.75
2022-11-17T19:34:16.065Z,71.75
2022-11-17T19:36:45.350Z,71.13
2022-11-17T19:39:14.197Z,71.15
2022-11-17T19:41:42.219Z,70.67
2022-11-17T19:44:10.002Z,70.32
2022-11-17T19:46:37.582Z,69.98
2022-11-17T19:49:06.294Z,71.59
2022-11-17T19:51:41.975Z,70.56
2022-11-17T19:54:11.838Z,70.66
2022-11-17T19:56:38.978Z,70.09
2022-11-17T19:59:09.701Z,70.78
2022-11-17T20:01:39.668Z,70.96
2022-11-17T20:04:07.426Z,70.46
2022-11-17T20:06:38.569Z,71.34
2022-11-17T20:09:14.981Z,70.27
2022-11-17T20:11:42.907Z,71.36
2022-11-17T20:14:10.919Z,71.21
2022-11-17T20:16:40.490Z,70.53
2022-11-17T20:19:08.696Z,71.82
2022-11-17T20:21:35.818Z,70.37
2022-11-17T20:24:03.377Z,70.96
2022-11-17T20:26:33.922Z,72.50
2022-11-17T20:29:03.256Z,72.62
2022-11-17T20:31:33.629Z,72.40
2022-11-17T20:34:03.782Z,72.54
2022-11-17T20:36:34.015Z,72.37
2022-11-17T20:39:05.602Z,71.23
2022-11-17T20:41:33.012Z,71.41
2022-11-17T20:44:26.721Z,71.06
2022-11-17T20:46:58.088Z,71.13
2022-11-17T20:49:27.940Z,71.37
2022-11-17T20:52:03.225Z,70.65
2022-11-17T20:54:36.276Z,71.45
2022-11-17T20:57:10.048Z,72.27
2022-11-17T20:59:37.516Z,73.63
2022-11-17T21:02:04.631Z,72.24
2022-11-17T21:04:32.010Z,72.66
2022-11-17T21:07:01.968Z,72.98
2022-11-17T21:09:29.090Z,73.00
2022-11-17T21:11:59.394Z,73.75
2022-11-17T21:14:27.665Z,74.42
2022-11-17T21:16:57.626Z,74.83
2022-11-17T21:19:24.770Z,75.16
2022-11-17T21:21:53.445Z,75.52
2022-11-17T21:24:22.074Z,75.14
2022-11-17T21:26:51.507Z,74.64
2022-11-17T21:29:18.687Z,74.63
2022-11-17T21:31:46.408Z,75.20
2022-11-17T21:34:17.408Z,75.06
2022-11-17T21:36:44.855Z,75.54
2022-11-17T21:39:18.260Z,75.59
2022-11-17T21:41:48.357Z,75.34
2022-11-17T21:44:15.523Z,75.13
2022-11-17T21:46:42.584Z,75.70
2022-11-17T21:49:09.724Z,75.73
2022-11-17T21:51:38.691Z,75.35
2022-11-17T21:54:09.795Z,74.80
2022-11-17T21:56:37.237Z,75.19
2022-11-17T21:59:10.221Z,74.97
2022-11-17T22:01:37.804Z,75.22
2022-11-17T22:04:05.058Z,75.96
2022-11-17T22:06:34.565Z,75.79
2022-11-17T22:09:01.609Z,76.22
2022-11-17T22:11:38.200Z,77.05
2022-11-17T22:14:19.280Z,76.88
2022-11-17T22:16:47.686Z,76.15
2022-11-17T22:19:17.257Z,76.47
2022-11-17T22:21:47.118Z,75.66
2022-11-17T22:24:14.299Z,75.56
2022-11-17T22:26:44.233Z,76.68
2022-11-17T22:29:21.263Z,76.18
2022-11-17T22:31:53.438Z,77.71
2022-11-17T22:34:22.976Z,78.08
2022-11-17T22:36:52.329Z,77.15
2022-11-17T22:39:19.785Z,77.17
2022-11-17T22:41:47.032Z,77.89
2022-11-17T22:44:18.239Z,77.42
2022-11-17T22:46:45.770Z,77.02
2022-11-17T22:49:13.610Z,76.88
2022-11-17T22:51:59.766Z,76.05
2022-11-17T22:54:26.890Z,76.47
2022-11-17T22:56:54.374Z,77.24
2022-11-17T22:59:24.740Z,77.10
2022-11-17T23:01:51.889Z,76.68
2022-11-17T23:04:20.917Z,76.75
2022-11-17T23:06:48.177Z,75.56
2022-11-17T23:09:16.043Z,76.29
2022-11-17T23:11:49.507Z,76.80
2022-11-17T23:14:16.995Z,77.03
2022-11-17T23:16:44.228Z,76.56
2022-11-17T23:19:14.838Z,76.37
2022-11-17T23:21:44.695Z,75.97
2022-11-17T23:24:15.015Z,75.48
2022-11-17T23:26:42.701Z,76.90
2022-11-17T23:29:10.358Z,77.43
2022-11-17T23:31:37.711Z,76.88
2022-11-17T23:34:04.940Z,76.75
2022-11-17T23:36:32.158Z,77.56
2022-11-17T23:38:59.610Z,77.36
2022-11-17T23:41:26.932Z,77.67
2022-11-17T23:43:54.923Z,79.12
2022-11-17T23:46:25.247Z,78.59
2022-11-17T23:48:53.273Z,79.25
2022-11-17T23:51:23.020Z,79.22
2022-11-17T23:53:52.792Z,79.81
2022-11-17T23:56:21.898Z,82.77
2022-11-17T23:58:51.446Z,81.85
